Time;durP1;ratioP1;P1;durP2;ratioP2;P2;SDS_P1;SDS_P2;PMS_P1;PMS_P2;Temp;Humidity;BMP_temperature;BMP_pressure;BME280_temperature;BME280_humidity;BME280_pressure;Samples;Min_cycle;Max_cycle;Signal;HPM_P1;HPM_P2
2024/03/03 03:03:13;;;;;;;31.20;21.00;;;;;;;6.95;80.55;99674.69;99616;1256;104905;-71
2024/03/03 03:05:40;;;;;;;37.50;22.60;;;;;;;6.95;80.53;99675.23;103679;1256;108010;-71
2024/03/03 03:08:09;;;;;;;35.10;21.20;;;;;;;6.94;80.40;99671.78;103049;1256;138563;-71
2024/03/03 03:10:36;;;;;;;34.60;22.30;;;;;;;6.94;80.44;99670.77;103573;1256;110545;-71
2024/03/03 03:13:03;;;;;;;38.70;22.30;;;;;;;6.94;80.47;99675.60;103221;1259;108511;-71
2024/03/03 03:15:35;;;;;;;33.80;21.80;;;;;;;6.93;80.53;99676.83;103371;1256;139702;-71
2024/03/03 03:18:02;;;;;;;35.00;23.30;;;;;;;6.94;80.57;99674.23;102992;1256;107549;-71
2024/03/03 03:20:29;;;;;;;35.40;23.20;;;;;;;6.93;80.50;99680.99;103500;1256;138386;-71
2024/03/03 03:22:56;;;;;;;33.00;22.90;;;;;;;6.92;80.54;99678.58;103246;1256;111861;-71
2024/03/03 03:25:23;;;;;;;35.10;22.40;;;;;;;6.91;80.54;99677.77;103189;1259;107358;-71
2024/03/03 03:27:50;;;;;;;34.50;22.90;;;;;;;6.90;80.62;99675.19;103646;1255;139060;-69
2024/03/03 03:30:18;;;;;;;36.60;22.00;;;;;;;6.91;80.61;99681.73;103264;1259;107715;-71
2024/03/03 03:32:45;;;;;;;34.00;22.80;;;;;;;6.91;80.72;99679.85;103149;1255;138503;-71
2024/03/03 03:35:12;;;;;;;33.20;22.20;;;;;;;6.89;80.73;99684.74;103326;1255;111930;-71
2024/03/03 03:37:39;;;;;;;33.30;21.90;;;;;;;6.88;80.79;99675.61;102887;1260;138760;-70
2024/03/03 03:40:09;;;;;;;31.30;21.90;;;;;;;6.88;80.88;99675.77;103482;1255;97814;-71
2024/03/03 03:42:37;;;;;;;36.80;22.70;;;;;;;6.88;80.98;99674.58;103352;1256;107943;-70
2024/03/03 03:45:06;;;;;;;37.60;22.90;;;;;;;6.86;80.78;99676.33;103326;1256;138428;-72
2024/03/03 03:47:33;;;;;;;36.50;23.40;;;;;;;6.86;80.98;99672.53;104009;1256;111183;-70
2024/03/03 03:50:00;;;;;;;34.00;23.00;;;;;;;6.87;80.82;99678.23;103176;1259;138895;-70
2024/03/03 03:52:27;;;;;;;39.10;24.30;;;;;;;6.87;80.97;99675.45;103259;1259;98016;-71
2024/03/03 03:54:54;;;;;;;32.00;23.00;;;;;;;6.86;80.78;99677.39;104587;1255;106796;-71
2024/03/03 03:57:21;;;;;;;37.90;23.60;;;;;;;6.83;80.93;99678.85;103859;1259;139058;-71
2024/03/03 03:59:48;;;;;;;36.00;22.60;;;;;;;6.82;80.80;99673.51;103196;1255;112529;-71
2024/03/03 04:02:15;;;;;;;37.30;23.20;;;;;;;6.82;81.05;99675.23;103219;1256;138557;-71
2024/03/03 04:04:42;;;;;;;37.20;24.40;;;;;;;6.80;81.09;99672.67;103189;1256;98357;-71
2024/03/03 04:07:09;;;;;;;34.70;23.20;;;;;;;6.80;81.01;99675.27;103706;1256;107893;-71
2024/03/03 04:09:37;;;;;;;36.50;22.50;;;;;;;6.77;81.06;99668.63;103336;1259;138346;-71
2024/03/03 04:12:05;;;;;;;35.60;24.10;;;;;;;6.76;81.16;99669.01;103899;1256;111929;-71
2024/03/03 04:14:32;;;;;;;36.20;25.10;;;;;;;6.75;81.30;99666.59;103335;1255;139599;-71
2024/03/03 04:16:59;;;;;;;40.50;24.70;;;;;;;6.73;81.30;99662.16;103156;1258;97682;-71
2024/03/03 04:19:26;;;;;;;37.50;24.30;;;;;;;6.72;81.35;99659.95;103210;1256;108884;-71
2024/03/03 04:21:53;;;;;;;36.50;24.00;;;;;;;6.71;81.41;99665.16;103128;1256;138870;-71
2024/03/03 04:24:21;;;;;;;40.80;25.50;;;;;;;6.69;81.51;99661.59;103530;1256;111907;-71
2024/03/03 04:26:48;;;;;;;33.90;24.50;;;;;;;6.66;81.50;99669.08;103566;1255;138989;-71
2024/03/03 04:29:15;;;;;;;38.50;25.20;;;;;;;6.64;81.68;99660.49;103377;1256;98298;-70
2024/03/03 04:31:45;;;;;;;35.90;24.30;;;;;;;6.62;81.75;99655.86;103763;1256;138702;-70
2024/03/03 04:34:13;;;;;;;40.80;26.60;;;;;;;6.64;81.97;99659.12;103239;1255;97860;-71
2024/03/03 04:36:43;;;;;;;37.70;24.70;;;;;;;6.65;81.88;99655.45;103487;1255;111977;-71
2024/03/03 04:39:10;;;;;;;39.50;25.50;;;;;;;6.65;81.82;99658.58;103758;1255;138888;-72
2024/03/03 04:41:37;;;;;;;38.90;24.90;;;;;;;6.64;82.02;99659.46;103864;1255;96060;-72
2024/03/03 04:44:05;;;;;;;39.90;26.20;;;;;;;6.64;81.89;99660.32;103043;1256;138514;-72
2024/03/03 04:46:32;;;;;;;42.40;26.60;;;;;;;6.62;81.90;99665.36;103174;1259;97875;-72
2024/03/03 04:48:59;;;;;;;41.10;26.60;;;;;;;6.60;81.95;99673.01;103293;1255;111031;-72
2024/03/03 04:51:26;;;;;;;41.10;26.50;;;;;;;6.58;82.08;99663.57;103007;1259;139090;-71
2024/03/03 04:53:53;;;;;;;39.10;25.80;;;;;;;6.55;82.05;99668.66;103063;1256;98344;-72
2024/03/03 04:56:20;;;;;;;38.00;26.30;;;;;;;6.54;82.20;99664.02;102988;1259;138430;-71
2024/03/03 04:58:47;;;;;;;40.70;27.20;;;;;;;6.52;82.27;99664.42;103068;1255;97684;-71
2024/03/03 05:01:14;;;;;;;45.80;27.90;;;;;;;6.52;82.27;99673.41;103120;1255;111410;-71
2024/03/03 05:03:42;;;;;;;39.30;26.70;;;;;;;6.49;82.37;99670.38;102946;1259;138307;-71
2024/03/03 05:06:10;;;;;;;37.60;26.50;;;;;;;6.47;82.41;99672.34;103174;1257;97800;-71
2024/03/03 05:08:37;;;;;;;41.70;26.90;;;;;;;6.45;82.51;99674.44;103030;1258;138435;-71
2024/03/03 05:11:04;;;;;;;46.30;27.40;;;;;;;6.43;82.55;99677.05;103059;1256;97810;-72
2024/03/03 05:13:31;;;;;;;41.50;28.20;;;;;;;6.42;82.75;99680.05;102986;1257;111562;-71
2024/03/03 05:15:58;;;;;;;36.60;27.10;;;;;;;6.39;82.84;99678.38;103142;1256;109914;-72
2024/03/03 05:18:25;;;;;;;38.30;27.40;;;;;;;6.37;82.83;99676.02;103160;1256;97691;-72
2024/03/03 05:20:52;;;;;;;45.70;27.90;;;;;;;6.36;83.01;99675.02;103036;1257;138272;-72
2024/03/03 05:23:19;;;;;;;43.80;27.60;;;;;;;6.33;83.13;99674.91;103220;1259;97804;-72
2024/03/03 05:25:47;;;;;;;41.90;27.20;;;;;;;6.31;83.07;99677.55;103086;1256;138428;-71
2024/03/03 05:28:14;;;;;;;42.10;28.00;;;;;;;6.29;83.35;99677.25;103187;1256;108221;-71
2024/03/03 05:30:42;;;;;;;42.70;27.80;;;;;;;6.30;83.31;99682.60;103529;1256;98392;-72
2024/03/03 05:33:11;;;;;;;44.50;28.30;;;;;;;6.31;83.24;99678.61;103057;1256;139725;-72
2024/03/03 05:35:39;;;;;;;42.70;29.40;;;;;;;6.32;83.53;99680.63;103229;1256;98611;-72
2024/03/03 05:38:06;;;;;;;47.60;29.30;;;;;;;6.34;83.46;99680.75;103083;1259;138370;-72
2024/03/03 05:40:33;;;;;;;42.80;28.20;;;;;;;6.36;83.50;99680.70;103173;1255;107679;-72
2024/03/03 05:43:00;;;;;;;39.40;27.20;;;;;;;6.37;83.59;99684.30;103229;1256;98131;-72
2024/03/03 05:45:27;;;;;;;43.30;27.00;;;;;;;6.38;83.41;99681.70;103061;1255;139227;-72
2024/03/03 05:47:54;;;;;;;44.00;27.90;;;;;;;6.40;83.43;99688.04;103180;1259;97827;-71
2024/03/03 05:50:22;;;;;;;41.40;27.30;;;;;;;6.42;83.39;99688.16;102996;1256;138477;-72
2024/03/03 05:52:49;;;;;;;41.10;28.40;;;;;;;6.43;83.43;99689.86;103113;1259;107602;-72
2024/03/03 05:55:17;;;;;;;40.60;27.50;;;;;;;6.43;83.43;99692.27;103120;1257;97892;-72
2024/03/03 05:57:44;;;;;;;43.10;28.50;;;;;;;6.41;83.41;99692.49;103054;1259;138394;-72
2024/03/03 06:00:14;;;;;;;45.50;28.30;;;;;;;6.41;83.47;99693.89;103199;1256;97857;-72
2024/03/03 06:02:41;;;;;;;40.80;28.20;;;;;;;6.41;83.53;99693.37;103701;1256;138392;-72
2024/03/03 06:05:09;;;;;;;45.90;29.20;;;;;;;6.45;83.53;99693.42;103195;1255;107389;-71
2024/03/03 06:07:37;;;;;;;44.00;29.00;;;;;;;6.48;83.52;99691.81;103369;1254;97809;-72
2024/03/03 06:10:04;;;;;;;40.90;28.70;;;;;;;6.53;83.30;99698.95;103083;1255;108688;-72
2024/03/03 06:12:32;;;;;;;42.40;28.90;;;;;;;6.56;83.15;99690.05;103482;1255;97776;-71
2024/03/03 06:14:59;;;;;;;40.20;27.30;;;;;;;6.59;83.10;99688.95;101641;1256;1003780;-72
2024/03/03 06:17:26;;;;;;;43.10;30.10;;;;;;;6.61;83.02;99689.06;103155;1257;107557;-72
2024/03/03 06:19:53;;;;;;;43.50;28.80;;;;;;;6.62;82.86;99691.27;103552;1256;138449;-72
2024/03/03 06:22:20;;;;;;;44.70;30.60;;;;;;;6.63;82.80;99685.90;103689;1256;106317;-72
2024/03/03 06:24:47;;;;;;;44.20;29.60;;;;;;;6.69;82.60;99691.48;103169;1255;97855;-72
2024/03/03 06:27:14;;;;;;;42.60;28.20;;;;;;;6.83;82.66;99686.45;103075;1259;138349;-72
2024/03/03 06:29:42;;;;;;;40.40;28.40;;;;;;;7.04;82.19;99684.85;103195;1256;108431;-72
2024/03/03 06:32:09;;;;;;;43.10;27.10;;;;;;;7.47;81.30;99692.82;103145;1256;140824;-71
2024/03/03 06:34:36;;;;;;;38.80;27.70;;;;;;;8.16;79.66;99683.66;103129;1256;107411;-72
2024/03/03 06:37:05;;;;;;;38.50;26.30;;;;;;;8.93;78.79;99684.63;103184;1259;98396;-73
2024/03/03 06:39:32;;;;;;;41.30;27.50;;;;;;;9.69;75.58;99687.28;103042;1255;138815;-73
2024/03/03 06:42:00;;;;;;;39.50;26.20;;;;;;;10.30;73.18;99689.78;103285;1256;108322;-74
2024/03/03 06:44:27;;;;;;;35.10;25.90;;;;;;;10.97;72.61;99685.46;102977;1256;138992;-73
2024/03/03 06:46:58;;;;;;;36.90;25.80;;;;;;;11.58;68.89;99686.63;103085;1255;109219;-72
2024/03/03 06:49:25;;;;;;;33.00;25.10;;;;;;;12.33;68.21;99685.58;103245;1255;97786;-72
2024/03/03 06:51:52;;;;;;;33.50;24.10;;;;;;;13.16;66.15;99683.00;102976;1255;140051;-73
2024/03/03 06:54:19;;;;;;;40.30;25.00;;;;;;;13.93;64.74;99681.01;103040;1259;108518;-72
2024/03/03 06:56:46;;;;;;;36.40;25.40;;;;;;;14.54;64.20;99677.42;103088;1254;139724;-72
2024/03/03 06:59:13;;;;;;;31.00;24.30;;;;;;;14.81;60.57;99676.34;103161;1256;107799;-72
2024/03/03 07:01:40;;;;;;;34.60;25.20;;;;;;;14.10;58.40;99679.35;103012;1256;138201;-72
2024/03/03 07:04:20;;;;;;;34.60;26.60;;;;;;;13.54;59.62;99682.92;103126;1256;111075;-72
2024/03/03 07:06:48;;;;;;;39.60;25.10;;;;;;;12.95;59.53;99684.27;103057;1256;107063;-72
2024/03/03 07:09:15;;;;;;;32.50;25.50;;;;;;;12.58;61.31;99684.52;103971;1256;137972;-72
2024/03/03 07:11:41;;;;;;;39.00;27.20;;;;;;;12.24;62.86;99683.23;104510;1255;107667;-73
2024/03/03 07:14:08;;;;;;;37.80;25.90;;;;;;;12.17;63.53;99681.83;104442;1255;138751;-72
2024/03/03 07:16:35;;;;;;;37.20;27.10;;;;;;;12.03;63.99;99680.02;104524;1256;110917;-72
2024/03/03 07:19:03;;;;;;;36.10;27.80;;;;;;;11.66;62.15;99682.08;104426;1256;107391;-73
2024/03/03 07:21:30;;;;;;;36.50;27.30;;;;;;;11.16;62.73;99681.73;103283;1256;138431;-71
2024/03/03 07:23:57;;;;;;;37.40;27.40;;;;;;;10.71;64.08;99685.16;103168;1259;107739;-72
2024/03/03 07:26:24;;;;;;;38.80;27.80;;;;;;;10.35;64.61;99688.91;103093;1256;138389;-71
2024/03/03 07:28:52;;;;;;;41.40;29.00;;;;;;;9.98;65.28;99698.50;103255;1256;112263;-72
2024/03/03 07:31:20;;;;;;;42.20;28.30;;;;;;;9.67;66.34;99694.33;103160;1259;109659;-70
2024/03/03 07:33:47;;;;;;;41.80;29.00;;;;;;;9.48;66.95;99698.80;103117;1256;138908;-73
2024/03/03 07:36:14;;;;;;;45.00;30.50;;;;;;;9.28;67.59;99697.46;103158;1256;108110;-71
2024/03/03 07:38:42;;;;;;;45.10;29.90;;;;;;;9.14;68.26;99707.48;103100;1256;138698;-71
2024/03/03 07:41:09;;;;;;;42.40;28.80;;;;;;;9.11;68.68;99705.48;103095;1257;112040;-71
2024/03/03 07:43:37;;;;;;;40.90;28.20;;;;;;;9.21;68.95;99703.28;102938;1255;109029;-72
2024/03/03 07:46:04;;;;;;;43.90;30.40;;;;;;;9.34;68.96;99705.21;103128;1257;98483;-73
2024/03/03 07:48:31;;;;;;;42.60;28.70;;;;;;;10.13;68.35;99705.03;103397;1256;109088;-72
2024/03/03 07:50:59;;;;;;;38.90;27.40;;;;;;;11.37;65.11;99702.16;102974;1255;139081;-72
2024/03/03 07:53:26;;;;;;;37.50;26.20;;;;;;;12.46;62.91;99698.73;103140;1256;111023;-72
2024/03/03 07:55:53;;;;;;;36.50;26.70;;;;;;;13.48;61.46;99696.70;103085;1255;138310;-73
2024/03/03 07:58:20;;;;;;;40.30;25.80;;;;;;;14.42;58.60;99695.75;103117;1256;98198;-68
2024/03/03 08:00:47;;;;;;;34.10;25.70;;;;;;;15.11;57.87;99690.33;103033;1255;107130;-62
2024/03/03 08:03:15;;;;;;;35.00;25.40;;;;;;;15.74;54.90;99687.05;102980;1259;138013;-63
2024/03/03 08:05:42;;;;;;;31.00;25.20;;;;;;;16.20;55.27;99689.23;103180;1256;111738;-62
2024/03/03 08:08:09;;;;;;;35.70;25.40;;;;;;;16.68;53.99;99688.34;102884;1256;138777;-66
2024/03/03 08:10:38;;;;;;;33.50;25.90;;;;;;;17.22;53.46;99689.33;104498;1256;96913;-64
2024/03/03 08:13:06;;;;;;;29.20;23.70;;;;;;;17.56;52.72;99692.25;104494;1256;108272;-65
2024/03/03 08:15:33;;;;;;;33.60;25.60;;;;;;;18.04;50.43;99693.42;104378;1255;138072;-62
2024/03/03 08:18:00;;;;;;;31.00;25.30;;;;;;;18.19;49.48;99693.21;104462;1255;111460;-61
2024/03/03 08:20:28;;;;;;;37.10;24.20;;;;;;;18.41;49.23;99696.89;104329;1255;138407;-61
2024/03/03 08:22:55;;;;;;;31.90;25.50;;;;;;;18.63;48.31;99698.39;103922;1256;97819;-62
2024/03/03 08:25:23;;;;;;;33.60;25.00;;;;;;;18.73;46.52;99695.94;103190;1256;108306;-64
2024/03/03 08:27:52;;;;;;;32.50;24.40;;;;;;;18.72;46.23;99691.08;103142;1254;137937;-64
2024/03/03 08:30:19;;;;;;;31.00;24.10;;;;;;;18.59;45.36;99693.25;103217;1255;111462;-66
2024/03/03 08:32:47;;;;;;;34.60;25.40;;;;;;;18.44;46.43;99692.95;102960;1256;138248;-64
2024/03/03 08:35:14;;;;;;;32.90;24.20;;;;;;;18.58;46.41;99697.05;103123;1256;98012;-64
2024/03/03 08:37:43;;;;;;;34.20;25.70;;;;;;;18.85;46.77;99689.92;103056;1259;137952;-64
2024/03/03 08:40:11;;;;;;;31.30;24.90;;;;;;;19.01;45.42;99695.75;103195;1256;97713;-63
2024/03/03 08:42:39;;;;;;;29.30;24.30;;;;;;;18.95;44.85;99693.95;103567;1257;110892;-65
2024/03/03 08:45:08;;;;;;;31.50;25.00;;;;;;;18.82;44.59;99699.17;103097;1259;138033;-65
2024/03/03 08:47:35;;;;;;;33.70;24.90;;;;;;;18.92;45.62;99695.37;103394;1258;97691;-63
2024/03/03 08:50:04;;;;;;;31.10;24.70;;;;;;;19.14;43.50;99699.73;103084;1257;138618;-71
2024/03/03 08:52:31;;;;;;;31.80;24.80;;;;;;;18.79;42.95;99695.28;103741;1255;96634;-73
2024/03/03 08:54:58;;;;;;;30.70;24.30;;;;;;;18.27;41.82;99699.11;103171;1255;111811;-74
2024/03/03 08:57:26;;;;;;;32.40;25.10;;;;;;;17.87;43.19;99697.09;102957;1255;139270;-77
2024/03/03 08:59:52;;;;;;;32.80;24.80;;;;;;;17.68;43.78;99696.86;103007;1256;97788;-74
2024/03/03 09:02:20;;;;;;;31.20;24.90;;;;;;;17.64;44.54;99697.45;103173;1255;138225;-74
2024/03/03 09:04:48;;;;;;;33.60;24.80;;;;;;;17.65;44.47;99695.80;104453;1255;95597;-74
2024/03/03 09:07:15;;;;;;;30.50;25.00;;;;;;;17.74;43.61;99699.77;104501;1256;110788;-72
2024/03/03 09:09:42;;;;;;;32.50;25.50;;;;;;;17.51;43.10;99695.36;104329;1255;138477;-71
2024/03/03 09:12:13;;;;;;;31.30;25.00;;;;;;;17.41;44.34;99685.02;104473;1256;96395;-72
2024/03/03 09:14:40;;;;;;;34.30;25.00;;;;;;;17.45;44.48;99687.52;104340;1259;139189;-73
2024/03/03 09:17:07;;;;;;;31.80;25.00;;;;;;;17.61;45.74;99683.48;104436;1259;95764;-76
2024/03/03 09:19:34;;;;;;;33.40;24.90;;;;;;;18.06;45.39;99678.67;104470;1255;111281;-69
2024/03/03 09:22:01;;;;;;;35.70;26.20;;;;;;;18.38;45.16;99682.52;104351;1255;108040;-72
2024/03/03 09:24:28;;;;;;;34.10;26.10;;;;;;;18.49;42.97;99687.34;104015;1256;96010;-69
2024/03/03 09:26:55;;;;;;;34.00;24.90;;;;;;;18.11;42.94;99686.20;102997;1259;137935;-69
2024/03/03 09:29:23;;;;;;;33.50;25.20;;;;;;;17.96;43.75;99684.66;103139;1259;97688;-71
2024/03/03 09:31:52;;;;;;;31.20;24.70;;;;;;;18.00;43.87;99683.16;103064;1259;138706;-71
2024/03/03 09:34:20;;;;;;;33.10;25.30;;;;;;;18.04;43.92;99679.82;103102;1259;107512;-69
2024/03/03 09:36:47;;;;;;;30.30;25.10;;;;;;;18.09;43.97;99678.21;103185;1256;98038;-69
2024/03/03 09:39:14;;;;;;;30.70;24.70;;;;;;;18.00;43.32;99684.19;102995;1256;138030;-71
2024/03/03 09:41:42;;;;;;;35.00;25.40;;;;;;;17.98;44.60;99683.14;102978;1259;99042;-71
2024/03/03 09:44:16;;;;;;;32.60;26.00;;;;;;;18.20;43.98;99683.61;102779;1256;138020;-70
2024/03/03 09:46:47;;;;;;;34.10;26.20;;;;;;;18.23;43.46;99678.81;103301;1256;106743;-71
2024/03/03 09:49:17;;;;;;;36.30;26.30;;;;;;;18.20;43.37;99685.39;103023;1259;97686;-71
2024/03/03 09:51:47;;;;;;;39.20;26.60;;;;;;;18.13;43.93;99683.60;104400;1256;139112;-70
2024/03/03 09:54:16;;;;;;;35.60;27.30;;;;;;;18.35;44.42;99689.77;104444;1256;96945;-71
2024/03/03 09:56:46;;;;;;;32.00;26.30;;;;;;;18.38;43.54;99689.36;104410;1256;137917;-71
2024/03/03 09:59:14;;;;;;;42.50;28.70;;;;;;;18.30;44.06;99688.20;103456;1259;106687;-69
2024/03/03 10:01:43;;;;;;;34.90;26.50;;;;;;;18.50;44.81;99686.33;103106;1255;138765;-70
2024/03/03 10:04:11;;;;;;;36.00;27.00;;;;;;;18.76;43.51;99687.30;103720;1256;108598;-66
2024/03/03 10:06:42;;;;;;;36.30;26.40;;;;;;;18.79;43.08;99688.98;103051;1254;97834;-68
2024/03/03 10:09:13;;;;;;;33.40;26.20;;;;;;;18.73;43.15;99690.51;102970;1256;137952;-71
2024/03/03 10:11:42;;;;;;;37.20;27.30;;;;;;;18.56;42.08;99693.14;102853;1260;107189;-74
2024/03/03 10:14:12;;;;;;;38.60;26.80;;;;;;;18.29;43.03;99693.75;102960;1259;138380;-82
2024/03/03 10:16:39;;;;;;;37.70;27.10;;;;;;;18.25;43.03;99692.59;104391;1256;107388;-73
2024/03/03 10:19:07;;;;;;;37.20;26.70;;;;;;;18.12;42.94;99688.08;104387;1256;95750;-72
2024/03/03 10:21:37;;;;;;;35.90;27.40;;;;;;;18.01;42.81;99686.58;104299;1255;137893;-75
2024/03/03 10:24:29;;;;;;;37.30;26.90;;;;;;;17.85;42.78;99685.08;104417;1257;108039;-77
2024/03/03 10:26:59;;;;;;;36.00;27.00;;;;;;;17.67;43.43;99678.48;104399;1256;138218;-76
2024/03/03 10:29:27;;;;;;;37.30;26.70;;;;;;;17.66;43.57;99681.52;104517;1256;106415;-75
2024/03/03 10:31:55;;;;;;;38.00;27.00;;;;;;;17.66;44.20;99678.20;104376;1256;138689;-75
2024/03/03 10:34:22;;;;;;;35.60;26.20;;;;;;;17.66;42.84;99678.48;104565;1256;111123;-73
2024/03/03 10:37:00;;;;;;;33.40;26.50;;;;;;;17.38;43.81;99673.60;104267;1257;131261;-73
2024/03/03 10:39:27;;;;;;;35.80;27.20;;;;;;;17.31;43.94;99676.58;104372;1256;138734;-71
2024/03/03 10:41:55;;;;;;;33.80;27.50;;;;;;;17.25;44.22;99674.34;103386;1259;107441;-65
2024/03/03 10:44:24;;;;;;;36.30;26.70;;;;;;;17.13;43.86;99675.30;103048;1257;139805;-66
2024/03/03 10:46:52;;;;;;;36.90;26.80;;;;;;;17.10;45.36;99666.96;103081;1256;111900;-67
2024/03/03 10:49:20;;;;;;;33.90;26.10;;;;;;;17.33;45.07;99665.70;104390;1255;107837;-71
2024/03/03 10:51:47;;;;;;;35.40;26.10;;;;;;;17.59;46.06;99667.77;104333;1256;139397;-66
2024/03/03 10:54:17;;;;;;;36.60;26.80;;;;;;;18.05;45.56;99665.36;104480;1257;107237;-79
2024/03/03 10:56:45;;;;;;;40.00;24.40;;;;;;;18.07;43.36;99666.09;103098;1256;137978;-72
2024/03/03 10:59:14;;;;;;;31.70;24.50;;;;;;;17.88;44.01;99662.88;103380;1256;112443;-71
2024/03/03 11:01:41;;;;;;;35.20;25.20;;;;;;;17.81;43.59;99661.13;102953;1256;138364;-73
2024/03/03 11:04:10;;;;;;;31.50;23.60;;;;;;;17.72;44.45;99657.91;103049;1256;97699;-71
2024/03/03 11:06:41;;;;;;;35.70;26.70;;;;;;;17.69;43.66;99663.20;102940;1256;107793;-69
2024/03/03 11:09:09;;;;;;;37.60;27.10;;;;;;;17.28;43.51;99656.71;103172;1256;138015;-66
2024/03/03 11:11:43;;;;;;;36.80;26.10;;;;;;;16.95;44.61;99654.95;104482;1256;110836;-76
2024/03/03 11:14:13;;;;;;;37.00;25.70;;;;;;;16.92;46.00;99649.88;104273;1256;138190;-77
2024/03/03 11:16:45;;;;;;;42.20;27.70;;;;;;;17.16;45.92;99641.04;104226;1256;95951;-67
2024/03/03 11:19:20;;;;;;;44.80;27.70;;;;;;;17.11;44.47;99641.20;104468;1256;107024;-68
2024/03/03 11:21:51;;;;;;;31.40;24.00;;;;;;;16.69;45.16;99642.28;104251;1256;138061;-66
2024/03/03 11:24:30;;;;;;;37.60;25.60;;;;;;;16.49;45.39;99641.20;104401;1260;110274;-65
2024/03/03 11:27:05;;;;;;;38.00;26.70;;;;;;;16.35;46.08;99634.56;104047;1259;138007;-65
2024/03/03 11:29:33;;;;;;;35.40;26.80;;;;;;;16.15;45.83;99636.40;103066;1256;98986;-66
2024/03/03 11:32:02;;;;;;;35.10;26.40;;;;;;;15.94;46.58;99636.98;103062;1256;138006;-65
2024/03/03 11:34:30;;;;;;;31.80;24.50;;;;;;;15.74;46.63;99634.31;103191;1256;99006;-65
2024/03/03 11:36:58;;;;;;;35.60;26.20;;;;;;;15.53;47.23;99625.95;103181;1256;111899;-65
2024/03/03 11:39:25;;;;;;;41.50;28.60;;;;;;;15.36;47.38;99626.45;103936;1256;138610;-66
2024/03/03 11:41:52;;;;;;;40.00;27.50;;;;;;;15.11;46.93;99623.81;104474;1256;96462;-66
2024/03/03 11:44:50;;;;;;;40.30;28.40;;;;;;;14.60;46.89;99629.98;103334;1256;137867;-66
2024/03/03 11:47:18;;;;;;;40.60;29.10;;;;;;;14.02;48.00;99631.21;103185;1259;97810;-66
2024/03/03 11:49:45;;;;;;;40.30;28.40;;;;;;;13.63;48.89;99625.68;103179;1259;138073;-66
2024/03/03 11:52:33;;;;;;;36.70;28.00;;;;;;;13.34;49.59;99623.21;103497;1256;107882;-65
2024/03/03 11:55:00;;;;;;;41.10;28.30;;;;;;;13.14;50.10;99619.77;103298;1259;97888;-65
2024/03/03 11:57:32;;;;;;;40.40;26.50;;;;;;;12.99;50.84;99615.95;103848;1256;137744;-68
2024/03/03 12:00:12;;;;;;;36.40;25.70;;;;;;;13.02;51.57;99613.58;104202;1256;95957;-68
2024/03/03 12:02:41;;;;;;;37.10;26.20;;;;;;;13.04;51.63;99615.56;103252;1256;138012;-70
2024/03/03 12:05:10;;;;;;;41.00;27.50;;;;;;;12.98;51.72;99616.21;103700;1259;107027;-70
2024/03/03 12:07:38;;;;;;;31.60;23.40;;;;;;;12.95;52.06;99614.46;102547;1256;1002283;-69
2024/03/03 12:10:13;;;;;;;34.70;25.60;;;;;;;13.05;52.41;99613.20;103086;1260;107686;-70
2024/03/03 12:12:42;;;;;;;32.30;24.70;;;;;;;12.99;51.89;99611.24;104456;1255;95860;-74
2024/03/03 12:15:10;;;;;;;38.10;25.40;;;;;;;12.86;52.30;99611.40;104301;1256;137959;-69
2024/03/03 12:17:37;;;;;;;37.70;27.30;;;;;;;12.92;52.86;99608.48;104469;1256;107184;-68
2024/03/03 12:20:06;;;;;;;40.50;27.40;;;;;;;13.02;52.68;99606.59;104330;1256;138978;-69
2024/03/03 12:22:33;;;;;;;38.30;28.20;;;;;;;13.00;52.24;99608.56;104425;1256;106963;-68
2024/03/03 12:25:00;;;;;;;37.10;26.40;;;;;;;12.93;52.50;99611.56;104445;1256;95608;-83
2024/03/03 12:27:28;;;;;;;33.30;25.30;;;;;;;12.95;52.55;99607.10;104107;1256;139466;-82
2024/03/03 12:30:05;;;;;;;35.20;27.50;;;;;;;12.98;52.78;99606.95;103080;1256;107129;-84
2024/03/03 12:32:32;;;;;;;38.20;27.20;;;;;;;12.98;52.47;99605.57;103237;1256;138020;-85
2024/03/03 12:34:59;;;;;;;35.40;26.70;;;;;;;12.84;52.53;99604.87;103138;1256;107888;-86
2024/03/03 12:37:27;;;;;;;33.50;26.70;;;;;;;12.66;52.73;99601.09;103061;1256;98114;-86
2024/03/03 12:39:56;;;;;;;35.90;24.60;;;;;;;12.58;53.39;99601.33;102975;1259;137793;-86
2024/03/03 12:42:24;;;;;;;34.50;25.80;;;;;;;12.64;53.55;99599.11;103513;1256;107066;-86
2024/03/03 12:44:51;;;;;;;36.50;25.50;;;;;;;12.61;53.60;99593.14;103085;1256;138131;-81
2024/03/03 12:47:22;;;;;;;32.90;24.20;;;;;;;12.62;54.01;99590.84;103105;1257;107077;-77
2024/03/03 12:49:49;;;;;;;34.60;24.60;;;;;;;12.70;54.13;99587.45;103374;1259;139295;-71
2024/03/03 12:52:18;;;;;;;34.30;25.50;;;;;;;12.89;54.53;99587.02;103085;1256;110448;-74
2024/03/03 12:54:45;;;;;;;32.10;23.80;;;;;;;13.01;54.25;99585.52;103174;1257;109471;-68
2024/03/03 12:57:14;;;;;;;33.50;24.30;;;;;;;13.11;54.00;99588.27;104127;1256;140392;-71
2024/03/03 12:59:42;;;;;;;33.00;24.00;;;;;;;13.24;53.70;99580.80;103338;1259;106927;-73
2024/03/03 13:02:15;;;;;;;30.10;21.90;;;;;;;13.29;53.52;99578.11;102949;1257;138201;-71
2024/03/03 13:07:14;;;;;;;31.00;21.70;;;;;;;13.56;53.78;99575.02;100079;1296;636037;-82
2024/03/03 13:09:42;;;;;;;32.70;23.80;;;;;;;13.77;53.66;99572.66;102374;1265;137724;-68
2024/03/03 13:12:10;;;;;;;34.40;22.70;;;;;;;13.91;52.76;99572.89;103906;1266;108777;-86
2024/03/03 13:14:37;;;;;;;33.30;23.80;;;;;;;14.03;52.78;99567.52;103833;1265;136913;-70
2024/03/03 13:17:06;;;;;;;32.70;22.80;;;;;;;14.12;52.05;99564.20;103907;1265;108199;-71
2024/03/03 13:19:49;;;;;;;26.80;19.80;;;;;;;14.11;52.00;99565.66;103824;1265;107906;-70
2024/03/03 13:22:18;;;;;;;30.00;20.60;;;;;;;14.21;52.42;99561.94;104035;1262;93134;-72
2024/03/03 13:24:59;;;;;;;34.20;22.40;;;;;;;14.14;51.69;99563.08;103962;1262;108957;-72
2024/03/03 13:27:29;;;;;;;29.60;22.00;;;;;;;13.91;51.21;99565.75;104037;1262;137711;-71
2024/03/03 13:29:57;;;;;;;30.00;21.10;;;;;;;13.61;51.76;99570.05;103992;1261;108183;-69
2024/03/03 13:32:24;;;;;;;37.60;21.10;;;;;;;13.39;52.28;99562.02;103913;1264;137400;-69
2024/03/03 13:34:51;;;;;;;27.80;20.20;;;;;;;13.18;52.97;99555.79;103431;1262;95120;-69
2024/03/03 13:37:18;;;;;;;26.90;20.70;;;;;;;13.15;53.41;99555.30;102879;1264;108495;-68
2024/03/03 13:39:45;;;;;;;31.40;20.40;;;;;;;13.16;53.45;99556.96;103992;1261;137290;-68
2024/03/03 13:42:13;;;;;;;27.50;20.20;;;;;;;13.15;53.56;99560.16;102852;1259;109384;-65
2024/03/03 13:44:43;;;;;;;29.20;19.70;;;;;;;13.16;53.97;99554.15;102803;1264;137659;-67
2024/03/03 13:47:14;;;;;;;28.70;19.20;;;;;;;13.25;54.09;99559.11;103633;1260;94983;-67
2024/03/03 13:49:41;;;;;;;26.90;18.20;;;;;;;13.32;53.95;99554.20;104247;1261;108271;-67
2024/03/03 13:52:09;;;;;;;32.00;19.40;;;;;;;13.43;54.09;99554.32;103436;1260;95099;-68
2024/03/03 13:54:44;;;;;;;24.30;18.30;;;;;;;13.47;53.78;99554.08;102901;1265;107610;-71
2024/03/03 13:57:12;;;;;;;25.50;18.20;;;;;;;13.49;53.79;99556.61;103038;1260;137974;-70
2024/03/03 13:59:39;;;;;;;23.50;17.90;;;;;;;13.42;53.00;99555.04;103598;1260;95546;-68
2024/03/03 14:02:07;;;;;;;22.20;17.30;;;;;;;13.20;53.25;99553.41;102983;1258;138091;-71
2024/03/03 14:04:34;;;;;;;24.60;17.50;;;;;;;13.09;53.47;99550.70;104099;1261;94949;-68
2024/03/03 14:07:02;;;;;;;27.10;16.70;;;;;;;12.95;53.74;99547.45;104326;1257;109136;-63
2024/03/03 14:09:30;;;;;;;26.70;16.30;;;;;;;12.85;54.12;99546.05;103044;1260;137454;-67
2024/03/03 14:11:57;;;;;;;24.90;17.30;;;;;;;12.79;54.43;99548.64;103454;1260;94976;-71
2024/03/03 14:14:25;;;;;;;24.10;17.60;;;;;;;12.75;54.79;99547.28;104308;1258;137433;-71
2024/03/03 14:16:52;;;;;;;25.20;17.00;;;;;;;12.70;55.22;99541.55;104376;1258;93073;-71